Time;durP1;ratioP1;P1;durP2;ratioP2;P2;SDS_P1;SDS_P2;PMS_P1;PMS_P2;Temp;Humidity;BMP_temperature;BMP_pressure;BME280_temperature;BME280_humidity;BME280_pressure;Samples;Min_cycle;Max_cycle;Signal;HPM_P1;HPM_P2
2023/03/09 00:01:17;;;;;;;60.35;22.80;;;;;;;0.27;100.00;99188.66;5051870;28;20025;-51
2023/03/09 00:03:42;;;;;;;68.03;22.40;;;;;;;0.29;100.00;99176.06;5072469;28;20352;-51
2023/03/09 00:06:09;;;;;;;57.95;20.13;;;;;;;0.29;100.00;99173.41;5071918;28;20498;-48
2023/03/09 00:08:34;;;;;;;61.72;21.70;;;;;;;0.30;100.00;99198.91;5071740;28;20403;-50
2023/03/09 00:11:00;;;;;;;55.38;20.92;;;;;;;0.29;100.00;99206.03;5072501;28;20035;-49
2023/03/09 00:13:25;;;;;;;62.60;23.08;;;;;;;0.30;100.00;99204.19;5072013;28;20483;-51
2023/03/09 00:15:50;;;;;;;56.58;21.75;;;;;;;0.27;100.00;99210.63;5072658;28;20132;-49
2023/03/09 00:18:20;;;;;;;52.50;19.13;;;;;;;0.31;100.00;99221.72;5071692;28;20463;-51
2023/03/09 00:20:46;;;;;;;61.00;22.30;;;;;;;0.32;100.00;99234.00;5071601;28;20032;-52
2023/03/09 00:23:11;;;;;;;52.42;19.17;;;;;;;0.32;100.00;99244.59;5071509;28;20029;-51
2023/03/09 00:25:37;;;;;;;50.10;19.88;;;;;;;0.29;100.00;99245.72;5072075;28;20036;-51
2023/03/09 00:28:02;;;;;;;53.15;18.42;;;;;;;0.32;100.00;99244.59;5071363;28;20378;-51
2023/03/09 00:30:28;;;;;;;56.05;19.98;;;;;;;0.32;100.00;99239.28;5072011;28;20032;-50
2023/03/09 00:32:53;;;;;;;58.38;21.25;;;;;;;0.36;100.00;99232.69;5071644;28;20025;-50
2023/03/09 00:35:19;;;;;;;59.85;20.65;;;;;;;0.42;100.00;99214.38;5071866;28;20027;-51
2023/03/09 00:37:46;;;;;;;54.13;19.05;;;;;;;0.37;100.00;99221.94;5071445;28;20078;-52
2023/03/09 00:40:12;;;;;;;56.78;19.73;;;;;;;0.37;100.00;99221.94;5071504;28;20063;-54
2023/03/09 00:42:38;;;;;;;55.13;21.60;;;;;;;0.30;100.00;99231.50;5072025;28;20146;-52
2023/03/09 00:45:05;;;;;;;57.08;20.13;;;;;;;0.40;100.00;99220.81;5070331;28;20691;-51
2023/03/09 00:47:31;;;;;;;58.05;20.10;;;;;;;0.43;100.00;99204.63;5071395;28;20036;-50
2023/03/09 00:49:56;;;;;;;53.78;20.05;;;;;;;0.40;100.00;99218.16;5069892;28;20155;-51
2023/03/09 00:52:21;;;;;;;54.08;20.40;;;;;;;0.42;100.00;99209.09;5071002;28;20160;-51
2023/03/09 00:54:47;;;;;;;53.22;19.63;;;;;;;0.45;100.00;99210.59;5071116;28;20024;-53
2023/03/09 00:57:12;;;;;;;53.05;19.60;;;;;;;0.41;100.00;99212.69;5070690;28;20020;-53
2023/03/09 00:59:37;;;;;;;58.67;21.15;;;;;;;0.45;100.00;99226.47;5070984;28;20023;-51
2023/03/09 01:02:03;;;;;;;66.95;21.92;;;;;;;0.48;100.00;99236.72;5070720;28;20055;-52
2023/03/09 01:04:28;;;;;;;52.20;20.50;;;;;;;0.50;100.00;99237.41;5071448;28;20095;-52
2023/03/09 01:06:54;;;;;;;57.85;19.88;;;;;;;0.48;100.00;99247.31;5070672;28;20063;-51
2023/03/09 01:09:19;;;;;;;51.58;18.23;;;;;;;0.47;100.00;99268.63;5070385;28;20434;-52
2023/03/09 01:11:45;;;;;;;51.88;17.85;;;;;;;0.52;100.00;99271.66;5071613;28;20451;-54
2023/03/09 01:14:10;;;;;;;44.30;16.67;;;;;;;0.50;100.00;99278.91;5071098;28;20115;-53
2023/03/09 01:16:36;;;;;;;47.22;17.13;;;;;;;0.51;100.00;99291.19;5076683;28;20028;-51
2023/03/09 01:19:01;;;;;;;45.97;16.30;;;;;;;0.45;100.00;99290.00;5073710;28;20426;-51
2023/03/09 01:21:26;;;;;;;41.00;15.60;;;;;;;0.46;100.00;99278.41;5070749;28;20028;-53
2023/03/09 01:23:52;;;;;;;39.17;14.40;;;;;;;0.48;100.00;99275.63;5070662;28;20437;-51
2023/03/09 01:26:18;;;;;;;36.25;14.10;;;;;;;0.48;100.00;99259.72;5069677;28;20051;-52
2023/03/09 01:28:43;;;;;;;38.42;14.82;;;;;;;0.45;100.00;99258.22;5069853;28;20029;-51
2023/03/09 01:31:10;;;;;;;32.53;14.02;;;;;;;0.44;100.00;99248.59;5070282;28;20430;-50
2023/03/09 01:33:36;;;;;;;37.00;13.73;;;;;;;0.47;100.00;99263.34;5070783;28;20036;-51
2023/03/09 01:36:11;;;;;;;37.85;14.32;;;;;;;0.44;100.00;99267.13;5070091;28;20017;-52
2023/03/09 01:38:36;;;;;;;37.58;14.85;;;;;;;0.43;100.00;99278.72;5070774;28;20032;-50
2023/03/09 01:41:02;;;;;;;35.80;14.77;;;;;;;0.42;100.00;99277.03;5070879;28;20086;-51
2023/03/09 01:43:36;;;;;;;32.47;12.75;;;;;;;0.44;100.00;99272.44;5070488;28;20505;-52
2023/03/09 01:46:19;;;;;;;31.73;13.13;;;;;;;0.43;100.00;99289.31;5070096;28;20043;-53
2023/03/09 01:48:48;;;;;;;35.33;14.25;;;;;;;0.41;100.00;99297.38;5070244;28;20027;-51
2023/03/09 01:51:14;;;;;;;35.88;13.63;;;;;;;0.41;100.00;99297.38;5070368;28;20168;-52
2023/03/09 01:53:39;;;;;;;31.83;12.93;;;;;;;0.46;100.00;99291.63;5069593;28;20029;-52
2023/03/09 01:56:05;;;;;;;33.17;13.68;;;;;;;0.46;100.00;99288.16;5060828;28;20452;-53
2023/03/09 01:58:31;;;;;;;31.42;13.10;;;;;;;0.43;100.00;99271.59;5069462;28;20386;-53
2023/03/09 02:00:58;;;;;;;32.47;12.90;;;;;;;0.45;100.00;99266.16;5061962;28;20104;-53
2023/03/09 02:03:35;;;;;;;33.20;13.30;;;;;;;0.41;100.00;99270.91;5070118;28;20558;-53
2023/03/09 02:06:13;;;;;;;31.23;14.60;;;;;;;0.47;100.00;99274.75;5067652;28;20451;-52
2023/03/09 02:08:44;;;;;;;36.30;13.13;;;;;;;0.49;100.00;99278.09;5073189;28;20780;-53
2023/03/09 02:11:11;;;;;;;33.20;12.88;;;;;;;0.54;100.00;99270.50;5074441;28;20545;-52
2023/03/09 02:13:42;;;;;;;32.60;12.68;;;;;;;0.53;100.00;99274.16;5048450;28;20037;-51
2023/03/09 02:16:07;;;;;;;32.22;11.93;;;;;;;0.58;100.00;99266.56;5055466;28;20490;-50
2023/03/09 02:18:33;;;;;;;26.73;11.35;;;;;;;0.57;100.00;99275.50;5074585;28;20119;-52
2023/03/09 02:21:16;;;;;;;26.23;11.10;;;;;;;0.52;100.00;99298.94;5059985;28;20033;-52
2023/03/09 02:24:04;;;;;;;25.92;11.93;;;;;;;0.54;100.00;99302.28;5069648;28;20039;-51
2023/03/09 02:26:34;;;;;;;;;;;;;;;0.54;100.00;99317.34;5063471;28;20051;-52
2023/03/09 02:29:00;;;;;;;24.17;9.93;;;;;;;0.59;100.00;99321.16;5070196;28;19916;-52
2023/03/09 02:31:26;;;;;;;22.40;9.85;;;;;;;0.63;100.00;99303.16;5075130;28;20123;-52
2023/03/09 02:33:51;;;;;;;20.48;9.80;;;;;;;0.62;100.00;99289.09;5056973;28;20057;-52
2023/03/09 02:36:17;;;;;;;21.23;8.65;;;;;;;0.60;100.00;99285.75;5051428;28;20466;-52
2023/03/09 02:38:42;;;;;;;21.50;8.50;;;;;;;0.59;100.00;99294.69;5085565;28;20075;-54
2023/03/09 02:41:09;;;;;;;19.25;9.40;;;;;;;0.58;100.00;99306.28;5091176;28;20032;-52
2023/03/09 02:43:44;;;;;;;21.08;8.95;;;;;;;0.59;100.00;99297.34;5089970;28;20032;-51
2023/03/09 02:46:10;;;;;;;26.38;10.23;;;;;;;0.60;100.00;99301.66;5085004;28;20043;-52
2023/03/09 02:48:35;;;;;;;22.27;9.60;;;;;;;0.60;100.00;99301.66;5084353;28;20032;-53
2023/03/09 02:51:01;;;;;;;20.45;9.43;;;;;;;0.64;100.00;99305.66;5090792;28;20733;-52
2023/03/09 02:53:26;;;;;;;23.23;9.55;;;;;;;0.65;100.00;99311.78;5091220;28;20031;-52
2023/03/09 02:55:51;;;;;;;26.80;9.82;;;;;;;0.63;100.00;99322.53;5091281;28;20059;-53
2023/03/09 02:58:17;;;;;;;21.55;8.95;;;;;;;0.67;100.00;99327.53;5079830;28;20740;-51
2023/03/09 03:00:42;;;;;;;24.50;9.35;;;;;;;0.64;100.00;99321.53;5075170;28;20020;-50
2023/03/09 03:03:08;;;;;;;25.30;9.30;;;;;;;0.64;100.00;99302.19;5063954;28;20033;-51
2023/03/09 03:05:33;;;;;;;19.08;9.05;;;;;;;0.61;100.00;99308.63;5057063;28;20027;-54
2023/03/09 03:07:58;;;;;;;20.63;9.15;;;;;;;0.61;100.00;99319.22;5061591;28;20127;-52
2023/03/09 03:10:24;;;;;;;23.15;9.15;;;;;;;0.59;100.00;99321.16;5083957;28;20051;-52
2023/03/09 03:12:49;;;;;;;25.08;10.00;;;;;;;0.61;100.00;99324.50;5056729;28;20127;-51
2023/03/09 03:15:14;;;;;;;19.38;8.40;;;;;;;0.61;100.00;99329.78;5081086;28;20032;-52
2023/03/09 03:17:40;;;;;;;20.92;8.70;;;;;;;0.58;100.00;99330.13;5073490;28;20139;-51
2023/03/09 03:20:11;;;;;;;24.38;9.88;;;;;;;0.60;100.00;99328.13;5064973;28;20098;-52
2023/03/09 03:22:37;;;;;;;18.38;8.20;;;;;;;0.59;100.00;99334.41;5067450;28;20036;-52
2023/03/09 03:25:03;;;;;;;22.48;9.63;;;;;;;0.61;100.00;99334.25;5059643;28;20041;-52
2023/03/09 03:27:29;;;;;;;20.52;8.25;;;;;;;0.61;100.00;99339.56;5074050;28;20079;-52
2023/03/09 03:29:54;;;;;;;23.42;9.73;;;;;;;0.58;100.00;99338.06;5083054;28;20036;-52
2023/03/09 03:32:20;;;;;;;24.52;9.70;;;;;;;0.60;100.00;99330.75;5065111;28;20111;-54
2023/03/09 03:34:45;;;;;;;18.52;8.20;;;;;;;0.60;100.00;99341.34;5065442;28;20519;-55
2023/03/09 03:37:12;;;;;;;22.95;9.95;;;;;;;0.60;100.00;99340.53;5074577;28;20028;-51
2023/03/09 03:39:37;;;;;;;21.05;9.60;;;;;;;0.59;100.00;99357.41;5074331;28;20032;-52
2023/03/09 03:42:03;;;;;;;22.30;9.27;;;;;;;0.56;100.00;99358.56;5074237;28;20024;-55
2023/03/09 03:44:28;;;;;;;25.52;10.35;;;;;;;0.55;100.00;99367.47;5075686;28;20082;-50
2023/03/09 03:46:54;;;;;;;25.13;9.70;;;;;;;0.55;100.00;99383.34;5064064;28;20455;-50
2023/03/09 03:49:21;;;;;;;24.35;10.00;;;;;;;0.57;100.00;99391.97;5060184;28;20113;-53
2023/03/09 03:51:46;;;;;;;23.55;9.63;;;;;;;0.62;100.00;99404.75;5076276;28;20021;-52
2023/03/09 03:54:12;;;;;;;22.05;9.60;;;;;;;0.62;100.00;99410.88;5082813;28;20012;-49
2023/03/09 03:56:37;;;;;;;23.90;10.13;;;;;;;0.67;100.00;99412.25;5093370;28;20097;-51
2023/03/09 03:59:02;;;;;;;23.35;10.18;;;;;;;0.67;100.00;99412.25;5093610;28;20024;-51
2023/03/09 04:01:28;;;;;;;27.48;10.05;;;;;;;0.69;100.00;99404.97;5091215;28;20047;-50
2023/03/09 04:03:53;;;;;;;27.35;9.88;;;;;;;0.71;100.00;99405.63;5088547;28;20096;-51
2023/03/09 04:06:19;;;;;;;25.42;10.38;;;;;;;0.71;100.00;99403.00;5072296;28;20119;-52
2023/03/09 04:08:44;;;;;;;28.02;10.15;;;;;;;0.65;100.00;99410.56;5071864;28;20056;-52
2023/03/09 04:11:11;;;;;;;29.40;11.35;;;;;;;0.63;100.00;99417.00;5086081;28;20100;-51
2023/03/09 04:13:36;;;;;;;24.40;11.15;;;;;;;0.64;100.00;99429.25;5072383;28;20112;-53
2023/03/09 04:16:01;;;;;;;23.67;9.68;;;;;;;0.62;100.00;99426.75;5072213;28;20060;-52
2023/03/09 04:18:27;;;;;;;30.23;11.00;;;;;;;0.68;100.00;99424.47;5072074;28;20049;-52
2023/03/09 04:20:52;;;;;;;31.90;11.50;;;;;;;0.64;100.00;99419.50;5076425;28;20040;-52
2023/03/09 04:23:18;;;;;;;24.35;10.73;;;;;;;0.63;100.00;99423.16;5071893;28;20115;-50
2023/03/09 04:25:43;;;;;;;23.85;10.07;;;;;;;0.61;100.00;99432.22;5072098;28;20509;-52
2023/03/09 04:28:09;;;;;;;26.33;11.02;;;;;;;0.68;100.00;99449.16;5064214;28;20403;-52
2023/03/09 04:30:34;;;;;;;23.02;9.95;;;;;;;0.69;100.00;99442.88;5082247;28;20043;-53
2023/03/09 04:32:59;;;;;;;26.98;11.60;;;;;;;0.67;100.00;99450.13;5074414;28;20055;-54
2023/03/09 04:35:25;;;;;;;29.42;11.85;;;;;;;0.63;100.00;99452.28;5083832;28;20460;-53
2023/03/09 04:37:51;;;;;;;25.08;10.52;;;;;;;0.72;100.00;99457.63;5071649;28;20438;-51
2023/03/09 04:40:17;;;;;;;24.08;10.90;;;;;;;0.73;100.00;99454.00;5062445;28;20033;-53
2023/03/09 04:42:42;;;;;;;22.77;9.48;;;;;;;0.76;100.00;99464.28;5071458;28;20033;-51
2023/03/09 04:45:08;;;;;;;26.80;10.15;;;;;;;0.74;100.00;99463.59;5071808;28;20021;-51
2023/03/09 04:47:33;;;;;;;27.27;11.25;;;;;;;0.71;100.00;99461.25;5071538;28;20416;-52
2023/03/09 04:49:59;;;;;;;27.38;10.70;;;;;;;0.69;100.00;99468.53;5081822;28;20531;-50
2023/03/09 04:52:24;;;;;;;31.70;10.95;;;;;;;0.67;100.00;99459.91;5077596;28;20043;-55
2023/03/09 04:54:50;;;;;;;32.83;10.65;;;;;;;0.62;100.00;99440.00;5071597;28;20702;-54
2023/03/09 04:57:16;;;;;;;26.98;10.63;;;;;;;0.58;100.00;99430.72;5067955;28;21954;-51
2023/03/09 04:59:41;;;;;;;26.02;10.23;;;;;;;0.57;100.00;99439.63;5064742;28;20116;-50
2023/03/09 05:02:07;;;;;;;32.35;12.77;;;;;;;0.57;100.00;99447.56;5069183;28;20039;-53
2023/03/09 05:04:32;;;;;;;26.55;11.15;;;;;;;0.56;100.00;99458.31;5070239;28;20024;-51
2023/03/09 05:06:58;;;;;;;30.42;12.00;;;;;;;0.55;100.00;99480.47;5068122;28;20035;-51
2023/03/09 05:09:23;;;;;;;29.23;10.93;;;;;;;0.57;100.00;99476.69;5068685;28;20436;-52
2023/03/09 05:11:52;;;;;;;36.10;13.15;;;;;;;0.61;100.00;99464.00;5078401;28;20042;-52
2023/03/09 05:14:18;;;;;;;29.35;11.63;;;;;;;0.57;100.00;99450.22;5071852;28;20037;-51
2023/03/09 05:16:45;;;;;;;30.50;11.55;;;;;;;0.54;100.00;99469.06;5070076;28;20094;-51
2023/03/09 05:19:11;;;;;;;33.42;12.60;;;;;;;0.37;100.00;99476.00;5069505;28;20050;-53
2023/03/09 05:21:37;;;;;;;35.97;12.88;;;;;;;0.40;100.00;99480.19;5065733;28;20084;-52
2023/03/09 05:24:04;;;;;;;34.15;12.60;;;;;;;0.50;100.00;99488.88;5063587;28;20111;-52
2023/03/09 05:26:29;;;;;;;36.80;12.55;;;;;;;0.49;100.00;99505.72;5078371;28;20036;-55
2023/03/09 05:28:54;;;;;;;35.58;13.65;;;;;;;0.55;100.00;99499.81;5069149;28;20465;-52
2023/03/09 05:31:20;;;;;;;33.40;13.52;;;;;;;0.60;100.00;99497.56;5081095;28;20535;-54
2023/03/09 05:33:45;;;;;;;33.90;13.88;;;;;;;0.58;100.00;99512.78;5069136;28;20410;-52
2023/03/09 05:36:16;;;;;;;34.30;14.40;;;;;;;0.55;100.00;99515.69;5068213;28;20090;-51
2023/03/09 05:38:41;;;;;;;36.72;13.18;;;;;;;0.60;100.00;99526.69;5069045;28;20028;-52
2023/03/09 05:41:07;;;;;;;34.67;14.15;;;;;;;0.62;100.00;99510.66;5059662;28;20387;-53
2023/03/09 05:43:35;;;;;;;40.22;15.43;;;;;;;0.65;100.00;99511.19;5050793;28;20104;-52
2023/03/09 05:46:01;;;;;;;41.13;16.00;;;;;;;0.65;100.00;99497.94;5051150;28;20029;-53
2023/03/09 05:48:27;;;;;;;36.28;14.25;;;;;;;0.64;100.00;99501.59;5062395;28;20032;-53
2023/03/09 05:50:52;;;;;;;37.67;14.38;;;;;;;0.65;100.00;99510.34;5062794;28;20155;-55
2023/03/09 05:53:18;;;;;;;41.03;14.88;;;;;;;0.65;100.00;99495.28;5067526;28;20056;-52
2023/03/09 05:55:43;;;;;;;34.55;15.13;;;;;;;0.61;100.00;99509.84;5064891;28;20140;-51
2023/03/09 05:58:08;;;;;;;34.35;14.93;;;;;;;0.60;100.00;99518.72;5069960;28;20116;-54
2023/03/09 06:00:34;;;;;;;40.85;16.33;;;;;;;0.61;100.00;99525.72;5061015;28;20025;-52
2023/03/09 06:02:59;;;;;;;45.88;16.48;;;;;;;0.61;100.00;99532.84;5068313;28;20109;-52
2023/03/09 06:05:24;;;;;;;46.75;16.92;;;;;;;0.68;100.00;99527.75;5068877;28;20445;-55
2023/03/09 06:07:51;;;;;;;43.58;16.30;;;;;;;0.65;100.00;99527.06;5063500;28;20537;-54
2023/03/09 06:10:16;;;;;;;47.75;17.95;;;;;;;0.68;100.00;99531.22;5060005;28;20028;-54
2023/03/09 06:12:42;;;;;;;50.42;19.50;;;;;;;0.65;100.00;99529.72;5066408;28;20082;-53
2023/03/09 06:15:08;;;;;;;48.15;17.45;;;;;;;0.61;100.00;99541.59;5056480;28;20570;-52
2023/03/09 06:17:33;;;;;;;51.33;18.52;;;;;;;0.59;100.00;99554.16;5064128;28;20111;-51
2023/03/09 06:19:59;;;;;;;46.33;17.52;;;;;;;0.62;100.00;99553.03;5070385;28;20287;-52
2023/03/09 06:22:24;;;;;;;50.35;20.40;;;;;;;0.60;100.00;99553.16;5066839;28;20029;-51
2023/03/09 06:24:49;;;;;;;53.95;19.38;;;;;;;0.61;100.00;99552.19;5064058;28;20035;-51
2023/03/09 06:27:15;;;;;;;48.40;18.00;;;;;;;0.59;100.00;99570.03;5070169;28;20109;-54
2023/03/09 06:29:40;;;;;;;52.45;19.58;;;;;;;0.60;100.00;99589.41;5069287;28;20459;-51
2023/03/09 06:32:06;;;;;;;52.47;19.17;;;;;;;0.59;100.00;99585.09;5070689;28;20058;-51
2023/03/09 06:34:31;;;;;;;54.35;19.58;;;;;;;0.62;100.00;99582.16;5069923;28;20028;-51
2023/03/09 06:36:57;;;;;;;59.45;21.63;;;;;;;0.65;100.00;99582.66;5069429;28;20471;-54
2023/03/09 06:39:22;;;;;;;55.00;20.52;;;;;;;0.69;100.00;99575.28;5065997;28;20025;-51
2023/03/09 06:41:47;;;;;;;53.92;20.20;;;;;;;0.64;100.00;99578.38;5070366;28;20025;-53
2023/03/09 06:44:13;;;;;;;53.33;20.52;;;;;;;0.62;100.00;99590.09;5059192;28;20127;-51
2023/03/09 06:46:38;;;;;;;53.58;20.42;;;;;;;0.73;100.00;99607.56;5065930;28;20467;-50
2023/03/09 06:49:04;;;;;;;56.70;19.55;;;;;;;0.76;100.00;99601.97;5073932;28;20054;-52
2023/03/09 06:51:29;;;;;;;53.55;19.35;;;;;;;0.78;100.00;99614.09;5073302;28;20032;-52
2023/03/09 06:53:54;;;;;;;62.00;21.95;;;;;;;0.80;100.00;99614.78;5072158;28;20511;-55
2023/03/09 06:56:20;;;;;;;61.47;22.08;;;;;;;0.83;100.00;99614.47;5074100;28;20036;-52
2023/03/09 06:58:45;;;;;;;61.38;21.23;;;;;;;0.87;100.00;99615.03;5073824;28;20071;-52
2023/03/09 07:01:12;;;;;;;59.65;20.70;;;;;;;0.83;100.00;99603.88;5073979;28;20467;-51
2023/03/09 07:03:39;;;;;;;54.63;20.15;;;;;;;0.82;100.00;99618.13;5074115;28;20021;-52
2023/03/09 07:06:04;;;;;;;54.22;21.05;;;;;;;0.90;100.00;99624.50;5073684;28;20020;-53
2023/03/09 07:08:30;;;;;;;53.25;20.83;;;;;;;0.91;100.00;99616.38;5073742;28;20324;-53
2023/03/09 07:10:55;;;;;;;58.35;21.05;;;;;;;0.87;100.00;99631.75;5072965;28;20071;-50
2023/03/09 07:13:21;;;;;;;58.97;20.88;;;;;;;0.90;100.00;99635.91;5073182;28;20419;-53
2023/03/09 07:15:46;;;;;;;57.92;20.38;;;;;;;0.95;100.00;99644.25;5072947;28;20034;-51
2023/03/09 07:18:12;;;;;;;57.33;20.15;;;;;;;0.95;100.00;99652.19;5073013;28;20056;-54
2023/03/09 07:20:38;;;;;;;54.33;20.23;;;;;;;0.96;100.00;99651.19;5072897;28;20032;-52
2023/03/09 07:23:04;;;;;;;52.08;19.55;;;;;;;0.99;100.00;99653.53;5073118;28;20032;-52
2023/03/09 07:25:33;;;;;;;68.93;20.50;;;;;;;0.98;100.00;99659.84;5072693;28;20020;-52
2023/03/09 07:28:02;;;;;;;67.47;27.05;;;;;;;0.96;100.00;99664.44;5072897;28;20383;-53
2023/03/09 07:30:28;;;;;;;60.10;21.77;;;;;;;1.00;100.00;99671.13;5071559;28;20088;-51
2023/03/09 07:32:55;;;;;;;49.50;20.30;;;;;;;1.16;100.00;99688.16;5071952;28;20033;-53
2023/03/09 07:35:21;;;;;;;57.25;21.50;;;;;;;1.24;100.00;99685.63;5073125;28;20028;-54
2023/03/09 07:37:46;;;;;;;58.58;22.40;;;;;;;1.34;100.00;99685.53;5072949;28;20039;-53
2023/03/09 07:40:12;;;;;;;56.83;20.23;;;;;;;1.34;100.00;99681.06;5072803;28;20082;-52
2023/03/09 07:42:37;;;;;;;54.83;20.83;;;;;;;1.37;100.00;99688.72;5073219;28;20036;-52
2023/03/09 07:45:03;;;;;;;54.90;20.55;;;;;;;1.41;100.00;99676.00;5072706;28;20039;-53
2023/03/09 07:47:31;;;;;;;53.30;21.02;;;;;;;1.44;100.00;99681.81;5073146;28;20025;-56
2023/03/09 07:49:57;;;;;;;57.17;21.13;;;;;;;1.44;100.00;99660.59;5072889;28;20371;-53
2023/03/09 07:52:22;;;;;;;56.00;21.15;;;;;;;1.49;100.00;99660.97;5073117;28;20032;-51
2023/03/09 07:54:50;;;;;;;54.90;20.48;;;;;;;1.45;100.00;99678.19;5073005;28;20031;-51
2023/03/09 07:57:15;;;;;;;54.00;20.05;;;;;;;1.45;100.00;99694.09;5071402;28;20021;-52
2023/03/09 07:59:41;;;;;;;54.55;19.52;;;;;;;1.49;100.00;99684.84;5071573;28;20062;-52
2023/03/09 08:02:06;;;;;;;55.63;20.67;;;;;;;1.65;100.00;99688.63;5072273;28;20434;-52
2023/03/09 08:04:32;;;;;;;60.88;21.10;;;;;;;1.60;100.00;99672.34;5070765;28;20047;-51
2023/03/09 08:06:57;;;;;;;48.42;18.95;;;;;;;1.69;100.00;99668.78;5072393;28;20412;-51
2023/03/09 08:09:23;;;;;;;52.95;20.70;;;;;;;1.74;100.00;99677.94;5071928;28;20045;-51
2023/03/09 08:11:48;;;;;;;50.95;19.75;;;;;;;1.72;100.00;99695.00;5072379;28;20105;-52
2023/03/09 08:14:14;;;;;;;55.65;20.48;;;;;;;1.72;100.00;99695.84;5072115;28;20417;-52
2023/03/09 08:16:39;;;;;;;53.35;19.63;;;;;;;1.78;100.00;99691.72;5072288;28;20374;-52
2023/03/09 08:19:04;;;;;;;49.35;19.80;;;;;;;1.80;100.00;99689.75;5072208;28;20064;-51
2023/03/09 08:21:30;;;;;;;59.03;20.98;;;;;;;1.80;100.00;99702.19;5072236;28;20048;-53
2023/03/09 08:23:57;;;;;;;48.83;19.63;;;;;;;1.86;100.00;99712.19;5072408;28;20094;-52
2023/03/09 08:26:23;;;;;;;48.15;18.70;;;;;;;1.90;100.00;99725.00;5072491;28;20339;-51
2023/03/09 08:28:48;;;;;;;48.90;19.17;;;;;;;1.83;100.00;99733.72;5072328;28;20126;-50
2023/03/09 08:31:16;;;;;;;49.70;20.17;;;;;;;1.87;100.00;99725.31;5072129;28;20028;-51
2023/03/09 08:33:42;;;;;;;;;;;;;;;1.91;100.00;99715.22;5071450;28;20060;-54
2023/03/09 08:36:15;;;;;;;57.40;21.10;;;;;;;1.88;100.00;99719.00;5072163;28;19939;-52
2023/03/09 08:38:42;;;;;;;47.40;18.92;;;;;;;2.04;100.00;99736.03;5072095;28;20079;-54
2023/03/09 08:41:07;;;;;;;56.60;20.25;;;;;;;2.14;100.00;99736.78;5071833;28;20428;-52
2023/03/09 08:43:33;;;;;;;49.30;18.67;;;;;;;2.18;100.00;99732.81;5071935;28;20158;-51
2023/03/09 08:45:58;;;;;;;47.70;18.55;;;;;;;2.20;100.00;99722.88;5071621;28;20028;-52
2023/03/09 08:48:24;;;;;;;49.35;19.25;;;;;;;2.20;100.00;99725.53;5071937;28;20063;-52
2023/03/09 08:50:49;;;;;;;47.25;18.85;;;;;;;2.10;100.00;99730.94;5071495;28;20097;-50
2023/03/09 08:53:14;;;;;;;45.50;19.35;;;;;;;2.22;100.00;99744.81;5071595;28;20033;-51
2023/03/09 08:55:40;;;;;;;51.80;19.15;;;;;;;2.34;100.00;99748.03;5071350;28;20031;-54
2023/03/09 08:58:05;;;;;;;48.83;18.90;;;;;;;2.35;100.00;99742.56;5071656;28;20185;-51
2023/03/09 09:00:31;;;;;;;53.10;20.73;;;;;;;2.43;100.00;99736.50;5072104;28;20085;-51
2023/03/09 09:02:56;;;;;;;48.70;18.95;;;;;;;2.42;100.00;99730.34;5074774;28;20513;-51
2023/03/09 09:05:21;;;;;;;48.00;18.73;;;;;;;2.33;100.00;99736.59;5074880;28;20426;-50
2023/03/09 09:07:47;;;;;;;51.60;20.50;;;;;;;2.29;100.00;99739.69;5074648;28;20356;-50
2023/03/09 09:10:12;;;;;;;50.88;20.35;;;;;;;2.22;100.00;99739.50;5072544;28;20025;-50
2023/03/09 09:12:38;;;;;;;47.42;19.27;;;;;;;2.19;100.00;99731.84;5073094;28;20082;-51
2023/03/09 09:15:07;;;;;;;51.15;19.48;;;;;;;2.15;100.00;99744.59;5072257;28;20101;-50
2023/03/09 09:17:32;;;;;;;50.28;18.38;;;;;;;2.21;100.00;99751.09;5072088;28;20048;-50
2023/03/09 09:19:58;;;;;;;48.33;20.00;;;;;;;2.19;100.00;99761.06;5070309;28;20044;-51
2023/03/09 09:22:23;;;;;;;51.90;19.20;;;;;;;2.14;100.00;99768.66;5071290;28;20024;-51
2023/03/09 09:24:49;;;;;;;47.47;20.20;;;;;;;2.18;100.00;99775.28;5071513;28;20024;-51
2023/03/09 09:27:14;;;;;;;53.70;18.88;;;;;;;2.13;100.00;99766.97;5071065;28;20028;-53
2023/03/09 09:29:40;;;;;;;48.03;18.50;;;;;;;2.13;100.00;99769.63;5071085;28;20380;-52
2023/03/09 09:32:06;;;;;;;55.92;20.35;;;;;;;2.11;100.00;99780.41;5071496;28;20016;-51
2023/03/09 09:34:32;;;;;;;54.38;20.92;;;;;;;2.20;100.00;99778.63;5072119;28;20374;-51
2023/03/09 09:37:00;;;;;;;56.10;20.23;;;;;;;2.16;100.00;99777.28;5071282;28;20028;-52
2023/03/09 09:39:26;;;;;;;56.05;20.67;;;;;;;2.27;100.00;99790.31;5071276;28;20032;-54
2023/03/09 09:41:55;;;;;;;54.63;20.13;;;;;;;2.32;100.00;99779.25;5070892;28;20108;-52
2023/03/09 09:44:41;;;;;;;53.17;20.33;;;;;;;2.38;100.00;99766.16;5071285;28;20025;-52
2023/03/09 09:47:13;;;;;;;60.90;20.77;;;;;;;2.36;100.00;99777.91;5069494;28;20032;-51
2023/03/09 09:49:47;;;;;;;52.83;20.00;;;;;;;2.31;100.00;99759.78;5069442;28;20035;-52
2023/03/09 09:52:26;;;;;;;59.63;20.63;;;;;;;2.33;100.00;99765.78;5069357;28;20028;-51
2023/03/09 09:55:00;;;;;;;56.22;19.67;;;;;;;2.33;100.00;99763.13;5071322;28;20435;-51
2023/03/09 09:57:39;;;;;;;53.17;20.40;;;;;;;2.32;100.00;99761.47;5070624;28;20510;-54
2023/03/09 10:00:14;;;;;;;58.80;20.88;;;;;;;2.30;100.00;99752.81;5070789;28;20029;-54
2023/03/09 10:03:19;;;;;;;58.00;20.88;;;;;;;2.30;100.00;99750.19;5070523;28;20054;-54
2023/03/09 10:05:58;;;;;;;57.70;21.30;;;;;;;2.30;100.00;99758.13;4972401;28;20053;-53
2023/03/09 10:08:41;;;;;;;59.88;20.77;;;;;;;2.40;100.00;99748.25;5060768;28;20113;-52
2023/03/09 10:11:18;;;;;;;56.67;21.05;;;;;;;2.46;100.00;99730.03;5070516;28;20486;-51
2023/03/09 10:13:46;;;;;;;61.10;20.70;;;;;;;2.44;100.00;99742.63;5070471;28;20471;-55
2023/03/09 10:16:42;;;;;;;59.65;20.90;;;;;;;2.36;100.00;99741.56;5070885;28;20313;-52
2023/03/09 10:19:15;;;;;;;59.58;20.17;;;;;;;2.36;100.00;99746.88;5067719;28;20068;-52
2023/03/09 10:21:43;;;;;;;64.60;23.00;;;;;;;2.32;100.00;99750.84;5069838;28;20058;-53
2023/03/09 10:24:20;;;;;;;57.15;21.20;;;;;;;2.47;100.00;99760.91;5070626;28;20025;-53
2023/03/09 10:26:57;;;;;;;59.47;21.15;;;;;;;2.55;100.00;99755.63;5070421;28;20162;-51
2023/03/09 10:29:47;;;;;;;62.58;21.30;;;;;;;2.59;100.00;99764.97;5070302;28;20387;-56
2023/03/09 10:32:20;;;;;;;58.55;20.73;;;;;;;2.60;100.00;99769.28;5070049;28;20093;-55
2023/03/09 10:34:57;;;;;;;59.78;22.40;;;;;;;2.59;100.00;99770.28;5070440;28;20036;-51
2023/03/09 10:37:24;;;;;;;64.13;22.27;;;;;;;2.64;100.00;99765.34;5070317;28;20095;-51
2023/03/09 10:39:50;;;;;;;57.10;22.38;;;;;;;2.64;100.00;99762.69;5070267;28;20021;-54
2023/03/09 10:42:19;;;;;;;62.63;23.25;;;;;;;2.61;100.00;99768.31;5070196;28;20036;-50
2023/03/09 10:44:56;;;;;;;61.97;22.70;;;;;;;2.61;100.00;99770.97;5070204;28;20336;-53
2023/03/09 10:47:21;;;;;;;61.33;23.27;;;;;;;2.59;100.00;99768.44;5070019;28;20064;-53
2023/03/09 10:50:09;;;;;;;67.63;25.05;;;;;;;2.62;100.00;99772.63;5070068;28;20056;-54
2023/03/09 10:52:34;;;;;;;64.20;23.77;;;;;;;2.53;100.00;99779.72;5070068;28;20032;-52
2023/03/09 10:55:00;;;;;;;69.07;22.20;;;;;;;2.63;100.00;99779.59;5069876;28;20104;-52
2023/03/09 10:57:31;;;;;;;68.03;23.67;;;;;;;2.62;100.00;99777.94;5070001;28;20025;-54
2023/03/09 11:00:13;;;;;;;65.40;23.60;;;;;;;2.66;100.00;99775.78;5069971;28;20483;-53
2023/03/09 11:02:39;;;;;;;67.93;24.77;;;;;;;2.74;100.00;99776.69;5070021;28;20028;-53
2023/03/09 11:05:25;;;;;;;72.53;25.77;;;;;;;2.65;100.00;99772.28;5068565;28;20035;-52
2023/03/09 11:07:55;;;;;;;68.30;24.42;;;;;;;2.63;100.00;99772.47;5070189;28;20021;-54
2023/03/09 11:10:23;;;;;;;71.88;25.48;;;;;;;2.61;100.00;99778.94;5069880;28;20479;-51
2023/03/09 11:12:49;;;;;;;76.95;26.75;;;;;;;2.58;100.00;99777.41;5069423;28;20119;-54
2023/03/09 11:15:14;;;;;;;70.20;25.52;;;;;;;2.33;100.00;99778.22;5070140;28;20103;-54
2023/03/09 11:17:46;;;;;;;76.28;26.50;;;;;;;2.25;100.00;99781.66;5069986;28;20371;-50
2023/03/09 11:20:14;;;;;;;74.00;25.48;;;;;;;2.22;100.00;99776.66;5068579;28;20093;-49